Airfield :
LOGIN :

Register | Disclaimer

   EN    FR    IT 

 










Legend :    VFR   Marginal VFR   IFR   Intensive IFR   Very Intensive IFR
Visi :
Ceiling :
>= 8 km
>= 3000ft
5 to 8 km
1000 to 3000 ft
1500m to 5 km
500 to 1000 ft
800 to 1500m
200 to 500 ft
< 800m
< 200 ft
Symbols :   Thunderstorms  Fog  Heavy snow  Heavy precipitations  Wind > 20 kt
SIGMETs :     Misc.  Thunderstorms  Icing  Turbulence  Mountain Waves  Volcanic Ashes







- Airport Elevation : 219 ft
- IATA code : DNR
- Download approach charts


LFRD - Dinard

CURRENT METAR :
  • 152030Z AUTO 25006KT 9999 BKN030 08/06 Q1009 NOSIG

EXPIRED METARs :
  • 152000Z AUTO 24008KT 9999 FEW034 09/07 Q1008 NOSIG
  • 151930Z AUTO 27009KT 9999 SCT036 BKN043 09/07 Q1008 NOSIG
  • 151900Z AUTO 28009KT 9999 FEW023 SCT029 09/08 Q1007 NOSIG
  • 151830Z AUTO 20004KT 180V240 9000 BKN025 BKN034 BKN048 09/09 Q1006 NOSIG
  • 151800Z AUTO 19005KT 9999 SCT005 BKN018 BKN023 09/09 Q1006 BECMG 25010KT

TAF AMD TAF LFRD
Valid from the 15 at 19:00 until the 16 at 18:00 UTC


151921Z 1519/1618 26010KT 9999 BKN025
PROB30
TEMPO 1600/1606 4000 SHRA SCT030TCU
BECMG 1608/1610 18008KT
TEMPO 1611/1617 4000 SHRA BKN025CB
PROB30
TEMPO 1613/1617 2000 TSRA BKN025CB
ATIS : +33 2 99 16 81 50
No reported NOTAMs for that airfield.



MET'MAP, your aeronautical weather chart ! - Copyright ORBIFLY December 2007 - Disclaimer

ORBIFLY MET'MAP TEAM :

Programming & Development : Alexandra Zaïnal
Concept & Development : Baudouin d'Aumeries
Co-Development & Prog : Marc-Olivier Méhu
Technical & hardware support : Manuel Goepfert

Contact : metmap@orbifly.com




SOURCES & CREDITS :

   NOAA